Latest Weather Observations for Merriwa

IDN60801

Issued at 10:05 am EST Friday 18 April 2014 (issued every 30 minutes, with the page automatically refreshed every 10 minutes)

About weather observations | Map of weather stations | Latest weather observations for NSW | Other Formats
Station Details ID: 061287 Name: MERRIWA (ROSCOMMON) Lat: -32.19 Lon: 150.17 Height: 375.0 m
Data from the previous 72 hours. | See also: Recent months at Merriwa
Date/Time
EST
Temp
°C
App
Temp
°C
Dew
Point
Rel
Hum
%
Delta-T
°C
Wind Press
QNH
hPa
Press
MSL
hPa
Rain
since 9 am
mm
Dir
 
Spd
km/h
Gust
km/h
Spd
kts
Gust
kts
18/10:00am 17.3 15.3 12.6 74 2.7 WNW 15 20 8 11 1018.9 - 0.0
18/09:30am 16.1 14.6 13.2 83 1.6 W 13 17 7 9 1018.9 - 0.0
18/09:00am 14.4 13.3 13.1 92 0.7 WNW 11 13 6 7 1019.2 1018.7 0.0
18/08:30am 12.4 11.0 12.1 98 0.2 WNW 11 13 6 7 1019.3 - 0.0
18/08:21am 12.4 11.0 12.2 99 0.1 WNW 11 13 6 7 1019.2 - 0.0
18/08:00am 10.6 8.3 10.4 99 0.1 WNW 13 15 7 8 1019.2 - 0.0
18/07:56am 10.6 8.7 10.4 99 0.1 WNW 11 17 6 9 1019.2 - 0.0
18/07:36am 9.9 8.2 9.8 99 0.1 WNW 9 13 5 7 1019.3 - 0.0
18/07:30am 9.4 7.6 9.3 99 0.1 WNW 9 13 5 7 1019.3 - 0.0
18/07:19am 8.4 6.9 8.3 99 0.0 W 6 9 3 5 1019.2 - 0.0
18/07:00am 6.7 4.5 6.4 98 0.1 W 7 9 4 5 1019.1 - 0.0
18/06:30am 7.6 4.9 7.5 99 0.0 W 11 11 6 6 1018.9 - 0.0
18/06:00am 7.7 5.1 7.6 99 0.0 W 11 13 6 7 1018.8 1018.2 0.0
18/05:30am 8.3 5.8 8.2 99 0.0 W 11 15 6 8 1018.7 - 0.0
18/05:00am 6.7 4.8 6.6 99 0.0 W 6 6 3 3 1018.6 - 0.0
18/04:30am 6.7 4.8 6.6 99 0.0 W 6 7 3 4 1018.7 - 0.0
18/04:00am 7.5 6.1 7.2 98 0.1 W 4 9 2 5 1018.7 - 0.0
18/03:30am 8.3 6.2 8.2 99 0.0 W 9 13 5 7 1018.8 - 0.0
18/03:00am 8.5 6.0 8.4 99 0.0 W 11 13 6 7 1018.8 1018.2 0.0
18/02:30am 8.0 5.8 7.9 99 0.0 W 9 11 5 6 1019.0 - 0.0
18/02:00am 7.9 6.0 7.6 98 0.1 W 7 9 4 5 1019.2 - 0.0
18/01:30am 10.1 10.1 9.9 99 0.1 CALM 0 0 0 0 1019.3 - 0.0
18/01:00am 10.2 9.1 10.0 99 0.1 ENE 6 7 3 4 1019.6 - 0.0
18/12:30am 10.5 9.3 10.3 99 0.1 ENE 7 7 4 4 1019.8 - 0.0
18/12:00am 10.8 9.9 10.5 98 0.2 ESE 6 7 3 4 1019.9 1019.4 0.0
 
Date/Time
EST
Temp
°C
App
Temp
°C
Dew
Point
Rel
Hum
%
Delta-T
°C
Wind Press
QNH
hPa
Press
MSL
hPa
Rain
since 9 am
mm
Dir
 
Spd
km/h
Gust
km/h
Spd
kts
Gust
kts
17/11:30pm 10.1 8.9 9.6 97 0.3 ESE 6 6 3 3 1019.9 - 0.0
17/11:00pm 10.4 8.9 9.2 92 0.6 ESE 7 9 4 5 1020.3 - 0.0
17/10:30pm 11.4 9.8 10.1 92 0.7 ESE 9 11 5 6 1020.3 - 0.0
17/10:00pm 11.2 9.6 8.9 86 1.2 SE 7 9 4 5 1020.3 - 0.0
17/09:30pm 11.8 9.6 9.2 84 1.3 SE 11 15 6 8 1020.1 - 0.0
17/09:00pm 10.4 9.0 7.1 80 1.6 SW 4 11 2 6 1019.7 1019.2 0.0
17/08:30pm 11.5 10.1 7.4 76 2.0 W 4 7 2 4 1019.5 - 0.0
17/08:00pm 12.6 10.7 7.5 71 2.5 W 7 11 4 6 1019.5 - 0.0
17/07:30pm 12.5 10.8 7.6 72 2.4 W 6 7 3 4 1019.2 - 0.0
17/07:00pm 14.1 11.9 7.9 66 3.1 W 9 11 5 6 1019.0 - 0.0
17/06:30pm 13.6 13.0 7.2 65 3.2 CALM 0 7 0 4 1018.8 - 0.0
17/06:00pm 15.2 14.1 6.7 57 4.2 WSW 2 7 1 4 1018.4 1017.8 0.0
17/05:30pm 18.3 15.8 6.5 46 6.0 WSW 9 13 5 7 1018.4 - 0.0
17/05:00pm 21.5 19.9 8.1 42 7.1 WSW 6 9 3 5 1018.1 - 0.0
17/04:30pm 20.4 20.5 10.2 52 5.6 CALM 0 0 0 0 1018.0 - 0.0
17/04:00pm 20.8 19.6 8.1 44 6.7 NW 4 9 2 5 1017.9 - 0.0
17/03:30pm 21.6 20.8 9.8 47 6.5 WSW 4 7 2 4 1018.0 - 0.0
17/03:00pm 22.3 20.9 9.5 44 7.0 WNW 7 11 4 6 1018.0 1017.4 0.0
17/02:30pm 20.5 21.2 12.2 59 4.7 CALM 0 7 0 4 1018.2 - 0.0
17/02:00pm 20.3 20.4 10.1 52 5.6 CALM 0 6 0 3 1018.3 - 0.0
17/01:30pm 21.8 20.4 10.9 50 6.1 WNW 9 13 5 7 1018.6 - 0.0
17/01:00pm 20.3 18.8 9.2 49 6.0 W 7 15 4 8 1019.0 - 0.0
17/12:30pm 21.0 19.5 11.9 56 5.2 W 11 17 6 9 1019.4 - 0.0
17/12:00pm 20.1 19.4 13.1 64 4.0 W 9 17 5 9 1020.0 1019.5 0.0
17/11:30am 18.5 17.4 12.0 66 3.7 WNW 9 15 5 8 1020.6 - 0.0
17/11:00am 18.4 17.9 12.6 69 3.3 NW 7 13 4 7 1021.0 - 0.0
17/10:30am 18.2 18.1 13.9 76 2.5 NNW 7 11 4 6 1021.1 - 0.0
17/10:00am 16.2 16.1 13.3 83 1.7 NW 6 9 3 5 1021.3 - 0.0
17/09:30am 14.8 15.1 14.5 98 0.2 WSW 6 7 3 4 1021.4 - 0.0
17/09:00am 14.1 14.0 13.9 99 0.1 WSW 7 11 4 6 1021.4 1020.9 0.0
17/08:30am 14.4 14.4 14.2 99 0.1 NW 7 9 4 5 1021.2 - 0.0
17/08:00am 12.2 11.5 12.0 99 0.1 W 7 9 4 5 1021.0 - 0.0
17/07:30am 11.4 10.5 11.2 99 0.1 W 7 11 4 6 1020.9 - 0.0
17/07:00am 9.0 7.4 8.9 99 0.0 W 7 11 4 6 1020.5 - 0.0
17/06:30am 7.3 5.3 7.2 99 0.0 W 7 9 4 5 1020.0 - 0.0
17/06:00am 7.6 5.9 7.5 99 0.0 W 6 9 3 5 1019.8 1019.3 0.0
17/05:30am 7.7 7.1 7.6 99 0.0 CALM 0 0 0 0 1019.6 - 0.0
17/05:00am 8.1 7.6 8.0 99 0.0 CALM 0 0 0 0 1019.5 - 0.0
17/04:30am 8.8 7.2 8.7 99 0.0 W 7 9 4 5 1019.4 - 0.0
17/04:00am 8.6 6.9 8.5 99 0.0 W 7 11 4 6 1019.3 - 0.0
17/03:30am 9.0 7.1 8.9 99 0.0 W 9 11 5 6 1019.1 - 0.0
17/03:00am 8.4 6.7 8.3 99 0.0 E 7 9 4 5 1018.9 1018.3 0.0
17/02:30am 8.7 8.3 8.4 98 0.1 CALM 0 0 0 0 1019.0 - 0.0
17/02:00am 11.2 10.4 11.0 99 0.1 E 6 7 3 4 1019.1 - 0.0
17/01:30am 10.7 9.6 10.5 99 0.1 E 7 7 4 4 1019.4 - 0.0
17/01:00am 10.3 9.2 10.0 98 0.2 E 6 6 3 3 1019.5 - 0.0
17/12:30am 11.0 11.2 10.7 98 0.2 CALM 0 0 0 0 1019.7 - 0.0
17/12:00am 11.2 11.5 10.9 98 0.2 CALM 0 0 0 0 1019.8 1019.3 0.0
 
Date/Time
EST
Temp
°C
App
Temp
°C
Dew
Point
Rel
Hum
%
Delta-T
°C
Wind Press
QNH
hPa
Press
MSL
hPa
Rain
since 9 am
mm
Dir
 
Spd
km/h
Gust
km/h
Spd
kts
Gust
kts
16/11:30pm 11.1 10.6 10.8 98 0.2 E 4 6 2 3 1019.8 - 0.0
16/11:00pm 11.9 11.3 11.6 98 0.2 E 6 7 3 4 1019.8 - 0.0
16/10:30pm 11.4 11.4 11.1 98 0.2 E 2 7 1 4 1019.8 - 0.0
16/10:00pm 11.2 11.4 10.6 96 0.3 CALM 0 0 0 0 1019.9 - 0.0
16/09:30pm 12.0 12.4 11.4 96 0.3 CALM 0 0 0 0 1019.8 - 0.0
16/09:00pm 13.0 13.7 12.1 94 0.5 CALM 0 0 0 0 1019.6 1019.1 0.0
16/08:30pm 13.1 13.8 12.2 94 0.5 CALM 0 0 0 0 1019.5 - 0.0
16/08:00pm 12.8 13.2 11.2 90 0.9 CALM 0 0 0 0 1019.3 - 0.0
16/07:30pm 13.8 13.3 12.0 89 1.0 E 6 7 3 4 1019.1 - 0.0
16/07:00pm 13.9 13.1 11.2 84 1.5 E 6 9 3 5 1018.9 - 0.0
16/06:30pm 14.8 14.0 11.6 81 1.8 E 7 9 4 5 1018.9 - 0.0
16/06:00pm 15.5 15.9 11.3 76 2.3 CALM 0 0 0 0 1018.4 1017.8 0.0
16/05:30pm 16.8 17.3 11.5 71 2.9 CALM 0 0 0 0 1018.1 - 0.0
16/05:00pm 18.1 17.4 11.9 67 3.5 E 7 9 4 5 1018.0 - 0.0
16/04:30pm 19.0 18.1 12.7 67 3.6 ESE 9 11 5 6 1017.9 - 0.0
16/04:00pm 18.0 14.5 12.2 69 3.3 SE 22 35 12 19 1017.8 - 0.0
16/03:30pm 20.3 19.9 11.2 56 5.1 E 4 9 2 5 1017.9 - 0.0
16/03:00pm 20.6 19.0 11.5 56 5.1 NNE 11 17 6 9 1017.9 1017.3 0.0
16/02:30pm 21.1 20.5 12.3 57 5.0 E 7 15 4 8 1018.0 - 0.0
16/02:00pm 21.1 19.2 11.7 55 5.3 ENE 13 19 7 10 1017.9 - 0.0
16/01:30pm 21.2 21.3 12.6 58 5.0 SE 4 9 2 5 1018.2 - 0.0
16/01:00pm 20.4 19.5 11.3 56 5.1 N 7 13 4 7 1018.4 - 0.0
16/12:30pm 20.5 19.1 12.2 59 4.7 ESE 11 22 6 12 1018.7 - 0.0
16/12:00pm 20.0 18.7 12.5 62 4.3 SSE 11 19 6 10 1019.3 1018.8 0.0
16/11:30am 20.5 19.2 12.5 60 4.6 ESE 11 20 6 11 1019.9 - 0.0
16/11:00am 20.1 19.2 13.6 66 3.8 SE 11 19 6 10 1020.5 - 0.0
16/10:30am 18.6 17.8 13.0 70 3.2 ESE 9 17 5 9 1020.7 - 0.0
16/10:00am 17.1 16.0 11.8 71 2.9 ESE 9 15 5 8 1020.9 - 0.0
16/09:30am 16.9 16.4 12.2 74 2.6 E 6 11 3 6 1020.9 - 0.0
16/09:00am 16.5 15.9 12.3 76 2.3 E 7 15 4 8 1020.9 1020.3 0.0
16/08:30am 15.7 14.8 12.5 81 1.8 NE 9 15 5 8 1020.9 - 0.0
16/08:00am 15.5 14.5 13.5 88 1.1 NE 11 13 6 7 1020.7 - 0.0
16/07:30am 14.3 13.5 14.0 98 0.2 NE 11 13 6 7 1020.3 - 0.0
16/07:00am 13.2 12.8 13.0 99 0.1 NE 7 11 4 6 1019.8 - 0.0
16/06:30am 12.4 11.8 12.2 99 0.1 NE 7 9 4 5 1019.5 - 0.0
16/06:00am 12.8 12.3 12.6 99 0.1 NE 7 9 4 5 1019.4 1018.9 0.0
16/05:30am 12.7 11.8 12.5 99 0.1 NNE 9 11 5 6 1019.4 - 0.0
16/05:00am 12.6 12.0 12.3 98 0.2 NE 7 9 4 5 1019.2 - 0.0
16/04:30am 13.3 12.9 13.0 98 0.2 NE 7 9 4 5 1019.2 - 0.0
16/04:00am 13.7 13.4 13.4 98 0.2 NE 7 9 4 5 1019.3 - 0.0
16/03:30am 13.8 13.6 13.5 98 0.2 ENE 7 9 4 5 1019.3 - 0.0
16/03:00am 13.8 13.1 13.3 97 0.3 NE 9 15 5 8 1019.1 1018.6 0.0
16/02:30am 14.2 13.3 12.6 90 0.9 ENE 9 13 5 7 1019.2 - 0.0
16/02:00am 14.6 14.0 12.3 86 1.3 E 7 11 4 6 1019.5 - 0.0
16/01:30am 14.7 13.7 12.4 86 1.3 E 9 17 5 9 1019.7 - 0.0
16/01:00am 14.6 14.0 12.3 86 1.3 ENE 7 11 4 6 1020.0 - 0.0
16/12:30am 14.8 14.1 12.1 84 1.5 ENE 7 9 4 5 1020.0 - 0.0
16/12:00am 15.1 14.4 12.1 82 1.7 E 7 11 4 6 1020.3 1019.7 0.0
 
Date/Time
EST
Temp
°C
App
Temp
°C
Dew
Point
Rel
Hum
%
Delta-T
°C
Wind Press
QNH
hPa
Press
MSL
hPa
Rain
since 9 am
mm
Dir
 
Spd
km/h
Gust
km/h
Spd
kts
Gust
kts
15/11:30pm 15.1 14.1 12.2 83 1.6 E 9 13 5 7 1020.4 - 0.0
15/11:00pm 15.0 14.4 12.3 84 1.5 E 7 11 4 6 1020.4 - 0.0
15/10:30pm 15.0 14.0 12.3 84 1.5 E 9 13 5 7 1020.3 - 0.0
15/10:00pm 15.0 14.1 12.7 86 1.3 E 9 11 5 6 1020.5 - 0.0
15/09:30pm 14.7 13.7 12.4 86 1.3 E 9 11 5 6 1020.4 - 0.0
15/09:00pm 15.2 14.2 12.3 83 1.6 E 9 11 5 6 1020.3 1019.7 0.0
15/08:30pm 15.8 14.9 12.5 81 1.8 E 9 15 5 8 1020.1 - 0.0
15/08:00pm 15.7 14.4 12.5 81 1.8 ENE 11 13 6 7 1019.9 - 0.0
15/07:30pm 16.0 14.6 12.2 78 2.1 E 11 15 6 8 1019.5 - 0.0
15/07:00pm 15.8 14.7 11.8 77 2.2 ENE 9 13 5 7 1019.4 - 0.0
15/06:30pm 16.0 14.2 11.0 72 2.7 E 11 15 6 8 1019.1 - 0.0
15/06:00pm 17.0 15.0 11.5 70 3.0 E 13 15 7 8 1018.8 1018.2 0.0
15/05:30pm 17.6 15.8 12.1 70 3.1 ESE 13 17 7 9 1018.5 - 0.0
15/05:00pm 18.1 15.8 11.7 66 3.6 ESE 15 20 8 11 1018.6 - 0.0
15/04:30pm 18.7 16.1 10.8 60 4.4 E 15 20 8 11 1018.4 - 0.0
15/04:00pm 19.5 15.9 9.7 53 5.3 ESE 19 28 10 15 1018.4 - 0.0
15/03:30pm 20.0 17.7 11.7 59 4.7 E 15 24 8 13 1018.3 - 0.0
15/03:00pm 21.2 19.1 11.0 52 5.7 E 13 20 7 11 1018.4 1017.8 0.0
15/02:30pm 21.2 19.1 11.0 52 5.7 ESE 13 20 7 11 1018.4 - 0.0
15/02:00pm 21.1 19.3 12.0 56 5.2 E 13 17 7 9 1018.5 - 0.0
15/01:30pm 20.4 18.1 11.6 57 5.0 E 15 20 8 11 1018.6 - 0.0
15/01:00pm 19.8 17.4 11.3 58 4.8 E 15 20 8 11 1019.0 - 0.0
15/12:30pm 20.2 17.9 11.7 58 4.8 E 15 24 8 13 1019.3 - 0.0
15/12:00pm 20.6 18.6 12.6 60 4.6 E 15 24 8 13 1019.7 1019.2 0.0
15/11:30am 20.0 17.5 12.3 61 4.4 E 17 24 9 13 1020.5 - 0.0
15/11:00am 18.7 15.7 12.0 65 3.8 ESE 19 24 10 13 1020.8 - 0.0
15/10:30am 18.7 15.7 12.0 65 3.8 E 19 28 10 15 1020.9 - 0.0

Other Formats:

Comma delimited format used in spreadsheet applications
http://www.bom.gov.au/fwo/IDN60801/IDN60801.95754.axf

JavaScript Object Notation format (JSON) in row-major order
http://www.bom.gov.au/fwo/IDN60801/IDN60801.95754.json